RJCW/WKJ METAR and TAF weather

Enter ICAO airport designator
Station Type Date Time Source
RJCW METAR 2022/12/08 09:00 UTC NOAA

RJCW 080900Z 29013KT 9999 FEW030 SCT040 BKN050 M03/M11 Q1014


Station Type Date Time Source
RJCW Decoded METAR 2022/12/08 09:00 UTC NOAA

Wakkanai Airport, Japan (RJCW) 45-24N 141-48E 11M
Dec 08, 2022 - 04:00 AM EST / 2022.12.08 0900 UTC
Wind: from the WNW (290 degrees) at 15 MPH (13 KT):0
Visibility: greater than 7 mile(s):0
Sky conditions: mostly cloudy
Temperature: 26 F (-3 C)
Windchill: 14 F (-10 C):1
Dew Point: 12 F (-11 C)
Relative Humidity: 53%
Pressure (altimeter): 29.94 in. Hg (1014 hPa)
ob: RJCW 080900Z 29013KT 9999 FEW030 SCT040 BKN050 M03/M11 Q1014
cycle: 9

Station Type Date Time Source
RJCW TAF UTC NOAA

Error!

Example: see airport list